sensor_id;sensor_type;location;lat;lon;timestamp;temperature;humidity
8595;DHT22;4335;48.860;9.198;2023-05-19T00:01:56;11.80;99.90
8595;DHT22;4335;48.860;9.198;2023-05-19T00:04:32;11.80;99.90
8595;DHT22;4335;48.860;9.198;2023-05-19T00:07:09;11.80;99.90
8595;DHT22;4335;48.860;9.198;2023-05-19T00:09:39;11.70;99.90
8595;DHT22;4335;48.860;9.198;2023-05-19T00:12:07;11.70;99.90
8595;DHT22;4335;48.860;9.198;2023-05-19T00:14:35;11.60;99.90
8595;DHT22;4335;48.860;9.198;2023-05-19T00:17:03;11.60;99.90
8595;DHT22;4335;48.860;9.198;2023-05-19T00:19:32;11.60;99.90
8595;DHT22;4335;48.860;9.198;2023-05-19T00:22:08;11.50;99.90
8595;DHT22;4335;48.860;9.198;2023-05-19T00:24:40;11.70;99.90
8595;DHT22;4335;48.860;9.198;2023-05-19T00:27:06;11.60;99.90
8595;DHT22;4335;48.860;9.198;2023-05-19T00:29:33;11.50;99.90
8595;DHT22;4335;48.860;9.198;2023-05-19T00:32:03;11.50;99.90
8595;DHT22;4335;48.860;9.198;2023-05-19T00:34:30;11.50;99.90
8595;DHT22;4335;48.860;9.198;2023-05-19T00:36:57;11.50;99.90
8595;DHT22;4335;48.860;9.198;2023-05-19T00:39:24;11.50;99.90
8595;DHT22;4335;48.860;9.198;2023-05-19T00:41:54;11.50;99.90
8595;DHT22;4335;48.860;9.198;2023-05-19T00:44:21;11.60;99.90
8595;DHT22;4335;48.860;9.198;2023-05-19T00:46:47;11.60;99.90
8595;DHT22;4335;48.860;9.198;2023-05-19T00:49:14;11.50;99.90
8595;DHT22;4335;48.860;9.198;2023-05-19T00:51:47;11.50;99.90
8595;DHT22;4335;48.860;9.198;2023-05-19T00:54:23;11.40;99.90
8595;DHT22;4335;48.860;9.198;2023-05-19T00:56:50;11.40;99.90
8595;DHT22;4335;48.860;9.198;2023-05-19T00:59:20;11.30;99.90
8595;DHT22;4335;48.860;9.198;2023-05-19T01:01:47;11.30;99.90
8595;DHT22;4335;48.860;9.198;2023-05-19T01:04:18;11.20;99.90
8595;DHT22;4335;48.860;9.198;2023-05-19T01:06:49;11.20;99.90
8595;DHT22;4335;48.860;9.198;2023-05-19T01:09:20;11.30;99.90
8595;DHT22;4335;48.860;9.198;2023-05-19T01:11:50;11.20;99.90
8595;DHT22;4335;48.860;9.198;2023-05-19T01:14:17;11.20;99.90
8595;DHT22;4335;48.860;9.198;2023-05-19T01:16:52;11.20;99.90
8595;DHT22;4335;48.860;9.198;2023-05-19T01:19:35;11.20;99.90
8595;DHT22;4335;48.860;9.198;2023-05-19T01:22:21;11.20;99.90
8595;DHT22;4335;48.860;9.198;2023-05-19T01:31:26;11.20;99.90
8595;DHT22;4335;48.860;9.198;2023-05-19T01:33:59;11.20;99.90
8595;DHT22;4335;48.860;9.198;2023-05-19T01:36:31;11.20;99.90
8595;DHT22;4335;48.860;9.198;2023-05-19T01:38:59;11.30;99.90
8595;DHT22;4335;48.860;9.198;2023-05-19T01:41:28;11.20;99.90
8595;DHT22;4335;48.860;9.198;2023-05-19T01:43:57;11.30;99.90
8595;DHT22;4335;48.860;9.198;2023-05-19T01:46:25;11.30;99.90
8595;DHT22;4335;48.860;9.198;2023-05-19T01:49:01;11.20;99.90
8595;DHT22;4335;48.860;9.198;2023-05-19T01:51:34;11.20;99.90
8595;DHT22;4335;48.860;9.198;2023-05-19T01:54:01;11.20;99.90
8595;DHT22;4335;48.860;9.198;2023-05-19T01:56:33;11.20;99.90
8595;DHT22;4335;48.860;9.198;2023-05-19T01:59:22;11.20;99.90
8595;DHT22;4335;48.860;9.198;2023-05-19T02:01:52;11.20;99.90
8595;DHT22;4335;48.860;9.198;2023-05-19T02:04:30;11.20;99.90
8595;DHT22;4335;48.860;9.198;2023-05-19T02:07:11;11.30;99.90
8595;DHT22;4335;48.860;9.198;2023-05-19T02:09:50;11.30;99.90
8595;DHT22;4335;48.860;9.198;2023-05-19T02:12:39;11.20;99.90
8595;DHT22;4335;48.860;9.198;2023-05-19T02:15:10;11.30;99.90
8595;DHT22;4335;48.860;9.198;2023-05-19T02:17:40;11.30;99.90
8595;DHT22;4335;48.860;9.198;2023-05-19T02:20:10;11.30;99.90
8595;DHT22;4335;48.860;9.198;2023-05-19T02:22:37;11.30;99.90
8595;DHT22;4335;48.860;9.198;2023-05-19T02:25:10;11.30;99.90
8595;DHT22;4335;48.860;9.198;2023-05-19T02:27:37;11.30;99.90
8595;DHT22;4335;48.860;9.198;2023-05-19T02:30:05;11.30;99.90
8595;DHT22;4335;48.860;9.198;2023-05-19T02:32:42;11.20;99.90
8595;DHT22;4335;48.860;9.198;2023-05-19T02:35:11;11.20;99.90
8595;DHT22;4335;48.860;9.198;2023-05-19T02:37:41;11.20;99.90
8595;DHT22;4335;48.860;9.198;2023-05-19T02:40:08;11.20;99.90
8595;DHT22;4335;48.860;9.198;2023-05-19T02:42:41;11.20;99.90
8595;DHT22;4335;48.860;9.198;2023-05-19T02:45:11;11.30;99.90
8595;DHT22;4335;48.860;9.198;2023-05-19T02:47:38;11.20;99.90
8595;DHT22;4335;48.860;9.198;2023-05-19T02:50:07;11.20;99.90
8595;DHT22;4335;48.860;9.198;2023-05-19T02:52:34;11.20;99.90
8595;DHT22;4335;48.860;9.198;2023-05-19T02:55:01;11.20;99.90
8595;DHT22;4335;48.860;9.198;2023-05-19T02:57:31;11.20;99.90
8595;DHT22;4335;48.860;9.198;2023-05-19T02:59:58;11.10;99.90
8595;DHT22;4335;48.860;9.198;2023-05-19T03:02:25;11.20;99.90
8595;DHT22;4335;48.860;9.198;2023-05-19T03:04:53;11.00;99.90
8595;DHT22;4335;48.860;9.198;2023-05-19T03:07:22;11.10;99.90
8595;DHT22;4335;48.860;9.198;2023-05-19T03:09:50;11.10;99.90
8595;DHT22;4335;48.860;9.198;2023-05-19T03:12:21;11.10;99.90
8595;DHT22;4335;48.860;9.198;2023-05-19T03:14:48;11.10;99.90
8595;DHT22;4335;48.860;9.198;2023-05-19T03:17:15;11.10;99.90
8595;DHT22;4335;48.860;9.198;2023-05-19T03:19:47;11.00;99.90
8595;DHT22;4335;48.860;9.198;2023-05-19T03:22:15;11.10;99.90
8595;DHT22;4335;48.860;9.198;2023-05-19T03:24:46;11.10;99.90
8595;DHT22;4335;48.860;9.198;2023-05-19T03:27:15;11.10;99.90
8595;DHT22;4335;48.860;9.198;2023-05-19T03:29:42;11.10;99.90
8595;DHT22;4335;48.860;9.198;2023-05-19T03:32:15;11.10;99.90
8595;DHT22;4335;48.860;9.198;2023-05-19T03:34:42;11.10;99.90
8595;DHT22;4335;48.860;9.198;2023-05-19T03:37:08;11.00;99.90
8595;DHT22;4335;48.860;9.198;2023-05-19T03:39:39;11.00;99.90
8595;DHT22;4335;48.860;9.198;2023-05-19T03:42:06;11.00;99.90
8595;DHT22;4335;48.860;9.198;2023-05-19T03:44:33;11.00;99.90
8595;DHT22;4335;48.860;9.198;2023-05-19T03:47:06;11.00;99.90
8595;DHT22;4335;48.860;9.198;2023-05-19T03:49:32;10.90;99.90
8595;DHT22;4335;48.860;9.198;2023-05-19T03:51:59;10.90;99.90
8595;DHT22;4335;48.860;9.198;2023-05-19T03:54:31;10.90;99.90
8595;DHT22;4335;48.860;9.198;2023-05-19T03:56:58;10.70;99.90
8595;DHT22;4335;48.860;9.198;2023-05-19T03:59:25;10.70;99.90
8595;DHT22;4335;48.860;9.198;2023-05-19T04:01:51;10.70;99.90
8595;DHT22;4335;48.860;9.198;2023-05-19T04:04:27;10.70;99.90
8595;DHT22;4335;48.860;9.198;2023-05-19T04:06:57;10.60;99.90
8595;DHT22;4335;48.860;9.198;2023-05-19T04:09:24;10.60;99.90
8595;DHT22;4335;48.860;9.198;2023-05-19T04:11:50;10.60;99.90
8595;DHT22;4335;48.860;9.198;2023-05-19T04:14:18;10.50;99.90
8595;DHT22;4335;48.860;9.198;2023-05-19T04:16:45;10.60;99.90
8595;DHT22;4335;48.860;9.198;2023-05-19T04:19:14;10.70;99.90
8595;DHT22;4335;48.860;9.198;2023-05-19T04:21:41;10.80;99.90
8595;DHT22;4335;48.860;9.198;2023-05-19T04:24:11;10.80;99.90
8595;DHT22;4335;48.860;9.198;2023-05-19T04:26:37;10.90;99.90
8595;DHT22;4335;48.860;9.198;2023-05-19T04:29:08;10.80;99.90
8595;DHT22;4335;48.860;9.198;2023-05-19T04:31:36;10.80;99.90
8595;DHT22;4335;48.860;9.198;2023-05-19T04:34:02;10.90;99.90
8595;DHT22;4335;48.860;9.198;2023-05-19T04:36:32;10.80;99.90
8595;DHT22;4335;48.860;9.198;2023-05-19T04:39:05;10.90;99.90
8595;DHT22;4335;48.860;9.198;2023-05-19T04:41:34;11.00;99.90
8595;DHT22;4335;48.860;9.198;2023-05-19T04:44:10;11.10;99.90
8595;DHT22;4335;48.860;9.198;2023-05-19T04:46:41;11.10;99.90
8595;DHT22;4335;48.860;9.198;2023-05-19T04:49:09;11.30;99.90
8595;DHT22;4335;48.860;9.198;2023-05-19T04:51:46;11.30;99.90
8595;DHT22;4335;48.860;9.198;2023-05-19T04:54:15;11.40;99.90
8595;DHT22;4335;48.860;9.198;2023-05-19T04:56:41;11.50;99.90
8595;DHT22;4335;48.860;9.198;2023-05-19T04:59:14;11.50;99.90
8595;DHT22;4335;48.860;9.198;2023-05-19T05:01:41;11.60;99.90
8595;DHT22;4335;48.860;9.198;2023-05-19T05:04:08;11.70;99.90
8595;DHT22;4335;48.860;9.198;2023-05-19T05:06:34;11.80;99.90
8595;DHT22;4335;48.860;9.198;2023-05-19T05:09:03;11.90;99.90
8595;DHT22;4335;48.860;9.198;2023-05-19T05:11:30;12.00;99.90
8595;DHT22;4335;48.860;9.198;2023-05-19T05:13:57;12.20;99.90
8595;DHT22;4335;48.860;9.198;2023-05-19T05:16:25;12.50;99.90
8595;DHT22;4335;48.860;9.198;2023-05-19T05:18:56;12.60;99.90
8595;DHT22;4335;48.860;9.198;2023-05-19T05:21:29;12.80;99.90
8595;DHT22;4335;48.860;9.198;2023-05-19T05:23:58;12.80;99.90
8595;DHT22;4335;48.860;9.198;2023-05-19T05:26:29;12.90;99.90
8595;DHT22;4335;48.860;9.198;2023-05-19T05:28:58;13.00;99.90
8595;DHT22;4335;48.860;9.198;2023-05-19T05:31:28;13.20;99.90
8595;DHT22;4335;48.860;9.198;2023-05-19T05:33:55;13.40;99.90
8595;DHT22;4335;48.860;9.198;2023-05-19T05:36:22;13.60;99.90
8595;DHT22;4335;48.860;9.198;2023-05-19T05:38:49;13.80;99.90
8595;DHT22;4335;48.860;9.198;2023-05-19T05:41:17;14.00;99.90
8595;DHT22;4335;48.860;9.198;2023-05-19T05:43:44;14.30;99.90
8595;DHT22;4335;48.860;9.198;2023-05-19T05:46:10;14.50;99.90
8595;DHT22;4335;48.860;9.198;2023-05-19T05:48:37;14.70;99.90
8595;DHT22;4335;48.860;9.198;2023-05-19T05:51:13;14.60;99.90
8595;DHT22;4335;48.860;9.198;2023-05-19T05:53:41;14.60;99.90
8595;DHT22;4335;48.860;9.198;2023-05-19T05:56:10;14.60;99.90
8595;DHT22;4335;48.860;9.198;2023-05-19T05:58:40;14.60;99.90
8595;DHT22;4335;48.860;9.198;2023-05-19T06:01:07;14.80;99.90
8595;DHT22;4335;48.860;9.198;2023-05-19T06:03:40;14.90;99.90
8595;DHT22;4335;48.860;9.198;2023-05-19T06:06:14;14.90;99.90
8595;DHT22;4335;48.860;9.198;2023-05-19T06:08:42;15.00;99.90
8595;DHT22;4335;48.860;9.198;2023-05-19T06:11:21;15.20;99.90
8595;DHT22;4335;48.860;9.198;2023-05-19T06:13:48;15.50;99.90
8595;DHT22;4335;48.860;9.198;2023-05-19T06:16:14;15.70;99.90
8595;DHT22;4335;48.860;9.198;2023-05-19T06:18:41;15.60;99.90
8595;DHT22;4335;48.860;9.198;2023-05-19T06:21:11;15.60;99.90
8595;DHT22;4335;48.860;9.198;2023-05-19T06:23:39;15.80;99.90
8595;DHT22;4335;48.860;9.198;2023-05-19T06:26:06;16.30;99.90
8595;DHT22;4335;48.860;9.198;2023-05-19T06:28:33;16.70;99.90
8595;DHT22;4335;48.860;9.198;2023-05-19T06:31:00;17.00;99.90
8595;DHT22;4335;48.860;9.198;2023-05-19T06:33:29;17.10;99.90
8595;DHT22;4335;48.860;9.198;2023-05-19T06:36:02;17.30;99.90
8595;DHT22;4335;48.860;9.198;2023-05-19T06:38:29;17.50;99.90
8595;DHT22;4335;48.860;9.198;2023-05-19T06:40:57;17.80;99.90
8595;DHT22;4335;48.860;9.198;2023-05-19T06:43:23;18.10;99.90
8595;DHT22;4335;48.860;9.198;2023-05-19T06:45:50;18.50;99.90
8595;DHT22;4335;48.860;9.198;2023-05-19T06:48:23;18.90;99.90
8595;DHT22;4335;48.860;9.198;2023-05-19T06:50:50;19.10;99.90
8595;DHT22;4335;48.860;9.198;2023-05-19T06:53:19;18.90;99.90
8595;DHT22;4335;48.860;9.198;2023-05-19T06:55:46;18.50;99.90
8595;DHT22;4335;48.860;9.198;2023-05-19T06:58:18;18.20;99.90
8595;DHT22;4335;48.860;9.198;2023-05-19T07:00:44;17.90;99.90
8595;DHT22;4335;48.860;9.198;2023-05-19T07:03:11;18.10;99.90
8595;DHT22;4335;48.860;9.198;2023-05-19T07:05:38;18.00;99.90
8595;DHT22;4335;48.860;9.198;2023-05-19T07:08:04;18.10;99.90
8595;DHT22;4335;48.860;9.198;2023-05-19T07:10:34;17.90;99.90
8595;DHT22;4335;48.860;9.198;2023-05-19T07:13:01;17.50;99.90
8595;DHT22;4335;48.860;9.198;2023-05-19T07:15:39;17.30;99.90
8595;DHT22;4335;48.860;9.198;2023-05-19T07:18:05;16.80;99.90
8595;DHT22;4335;48.860;9.198;2023-05-19T07:20:35;16.70;99.90
8595;DHT22;4335;48.860;9.198;2023-05-19T07:23:02;16.70;99.90
8595;DHT22;4335;48.860;9.198;2023-05-19T07:25:30;16.40;99.90
8595;DHT22;4335;48.860;9.198;2023-05-19T07:27:58;15.90;99.90
8595;DHT22;4335;48.860;9.198;2023-05-19T07:30:26;15.70;99.90
8595;DHT22;4335;48.860;9.198;2023-05-19T07:32:53;15.30;99.90
8595;DHT22;4335;48.860;9.198;2023-05-19T07:35:24;15.30;99.90
8595;DHT22;4335;48.860;9.198;2023-05-19T07:37:53;15.10;99.90
8595;DHT22;4335;48.860;9.198;2023-05-19T07:40:23;15.00;99.90
8595;DHT22;4335;48.860;9.198;2023-05-19T07:42:52;15.10;99.90
8595;DHT22;4335;48.860;9.198;2023-05-19T07:45:22;15.10;99.90
8595;DHT22;4335;48.860;9.198;2023-05-19T07:47:48;15.00;99.90
8595;DHT22;4335;48.860;9.198;2023-05-19T07:50:16;15.00;99.90
8595;DHT22;4335;48.860;9.198;2023-05-19T07:52:42;14.80;99.90
8595;DHT22;4335;48.860;9.198;2023-05-19T07:55:12;14.70;99.90
8595;DHT22;4335;48.860;9.198;2023-05-19T07:57:39;14.70;99.90
8595;DHT22;4335;48.860;9.198;2023-05-19T08:00:07;14.80;99.90
8595;DHT22;4335;48.860;9.198;2023-05-19T08:02:36;14.90;99.90
8595;DHT22;4335;48.860;9.198;2023-05-19T08:05:03;15.10;99.90
8595;DHT22;4335;48.860;9.198;2023-05-19T08:07:34;15.00;99.90
8595;DHT22;4335;48.860;9.198;2023-05-19T08:10:01;15.00;99.90
8595;DHT22;4335;48.860;9.198;2023-05-19T08:12:32;15.00;99.90
8595;DHT22;4335;48.860;9.198;2023-05-19T08:15:06;15.00;99.90
8595;DHT22;4335;48.860;9.198;2023-05-19T08:17:36;14.80;99.90
8595;DHT22;4335;48.860;9.198;2023-05-19T08:20:02;14.70;99.90
8595;DHT22;4335;48.860;9.198;2023-05-19T08:22:42;14.70;99.90
8595;DHT22;4335;48.860;9.198;2023-05-19T08:25:24;14.60;99.90
8595;DHT22;4335;48.860;9.198;2023-05-19T08:27:52;14.60;99.90
8595;DHT22;4335;48.860;9.198;2023-05-19T08:30:25;14.50;99.90
8595;DHT22;4335;48.860;9.198;2023-05-19T08:32:52;14.50;99.90
8595;DHT22;4335;48.860;9.198;2023-05-19T08:35:21;14.50;99.90
8595;DHT22;4335;48.860;9.198;2023-05-19T08:37:52;14.60;99.90
8595;DHT22;4335;48.860;9.198;2023-05-19T08:40:22;14.50;99.90
8595;DHT22;4335;48.860;9.198;2023-05-19T08:42:49;14.60;99.90
8595;DHT22;4335;48.860;9.198;2023-05-19T08:45:16;14.70;99.90
8595;DHT22;4335;48.860;9.198;2023-05-19T08:47:45;14.70;99.90
8595;DHT22;4335;48.860;9.198;2023-05-19T08:50:18;14.60;99.90
8595;DHT22;4335;48.860;9.198;2023-05-19T08:52:51;14.60;99.90
8595;DHT22;4335;48.860;9.198;2023-05-19T08:55:28;14.60;99.90
8595;DHT22;4335;48.860;9.198;2023-05-19T08:57:59;14.70;99.90
8595;DHT22;4335;48.860;9.198;2023-05-19T09:00:32;14.70;99.90
8595;DHT22;4335;48.860;9.198;2023-05-19T09:03:05;14.90;99.90
8595;DHT22;4335;48.860;9.198;2023-05-19T09:05:32;14.90;99.90
8595;DHT22;4335;48.860;9.198;2023-05-19T09:08:00;14.80;99.90
8595;DHT22;4335;48.860;9.198;2023-05-19T09:10:30;14.70;99.90
8595;DHT22;4335;48.860;9.198;2023-05-19T09:12:57;14.60;99.90
8595;DHT22;4335;48.860;9.198;2023-05-19T09:15:27;14.60;99.90
8595;DHT22;4335;48.860;9.198;2023-05-19T09:18:04;14.60;99.90
8595;DHT22;4335;48.860;9.198;2023-05-19T09:20:39;14.60;99.90
8595;DHT22;4335;48.860;9.198;2023-05-19T09:23:11;14.60;99.90
8595;DHT22;4335;48.860;9.198;2023-05-19T09:25:45;14.60;99.90
8595;DHT22;4335;48.860;9.198;2023-05-19T09:28:22;14.60;99.90
8595;DHT22;4335;48.860;9.198;2023-05-19T09:31:00;14.50;99.90
8595;DHT22;4335;48.860;9.198;2023-05-19T09:33:27;14.50;99.90
8595;DHT22;4335;48.860;9.198;2023-05-19T09:35:54;14.60;99.90
8595;DHT22;4335;48.860;9.198;2023-05-19T09:38:23;14.50;99.90
8595;DHT22;4335;48.860;9.198;2023-05-19T09:40:51;14.50;99.90
8595;DHT22;4335;48.860;9.198;2023-05-19T09:43:18;14.50;99.90
8595;DHT22;4335;48.860;9.198;2023-05-19T09:45:56;14.60;99.90
8595;DHT22;4335;48.860;9.198;2023-05-19T09:48:25;14.60;99.90
8595;DHT22;4335;48.860;9.198;2023-05-19T09:50:53;14.60;99.90
8595;DHT22;4335;48.860;9.198;2023-05-19T09:53:21;14.70;99.90
8595;DHT22;4335;48.860;9.198;2023-05-19T09:55:48;14.90;99.90
8595;DHT22;4335;48.860;9.198;2023-05-19T09:58:16;14.90;99.90
8595;DHT22;4335;48.860;9.198;2023-05-19T10:00:47;14.90;99.90
8595;DHT22;4335;48.860;9.198;2023-05-19T10:03:17;15.00;99.90
8595;DHT22;4335;48.860;9.198;2023-05-19T10:05:44;15.10;99.90
8595;DHT22;4335;48.860;9.198;2023-05-19T10:08:16;15.20;99.90
8595;DHT22;4335;48.860;9.198;2023-05-19T10:10:44;15.20;99.90
8595;DHT22;4335;48.860;9.198;2023-05-19T10:13:12;15.20;99.90
8595;DHT22;4335;48.860;9.198;2023-05-19T10:15:42;15.10;99.90
8595;DHT22;4335;48.860;9.198;2023-05-19T10:18:15;15.10;99.90
8595;DHT22;4335;48.860;9.198;2023-05-19T10:20:43;15.00;99.90
8595;DHT22;4335;48.860;9.198;2023-05-19T10:23:10;15.00;99.90
8595;DHT22;4335;48.860;9.198;2023-05-19T10:25:37;15.10;99.90
8595;DHT22;4335;48.860;9.198;2023-05-19T10:28:12;15.00;99.90
8595;DHT22;4335;48.860;9.198;2023-05-19T10:30:42;15.10;99.90
8595;DHT22;4335;48.860;9.198;2023-05-19T10:33:46;15.20;99.90
8595;DHT22;4335;48.860;9.198;2023-05-19T10:36:42;15.20;99.90
8595;DHT22;4335;48.860;9.198;2023-05-19T10:39:17;15.20;99.90
8595;DHT22;4335;48.860;9.198;2023-05-19T10:41:52;15.30;99.90
8595;DHT22;4335;48.860;9.198;2023-05-19T10:44:33;15.40;99.90
8595;DHT22;4335;48.860;9.198;2023-05-19T10:47:06;15.40;99.90
8595;DHT22;4335;48.860;9.198;2023-05-19T10:49:36;15.50;99.90
8595;DHT22;4335;48.860;9.198;2023-05-19T10:52:18;15.70;99.90
8595;DHT22;4335;48.860;9.198;2023-05-19T10:54:46;15.90;99.90
8595;DHT22;4335;48.860;9.198;2023-05-19T10:57:14;15.80;99.90
8595;DHT22;4335;48.860;9.198;2023-05-19T10:59:42;15.90;99.90
8595;DHT22;4335;48.860;9.198;2023-05-19T11:02:10;16.00;99.90
8595;DHT22;4335;48.860;9.198;2023-05-19T11:05:06;15.80;99.90
8595;DHT22;4335;48.860;9.198;2023-05-19T11:07:34;15.70;99.90
8595;DHT22;4335;48.860;9.198;2023-05-19T11:10:04;15.60;99.90
8595;DHT22;4335;48.860;9.198;2023-05-19T11:12:39;15.50;99.90
8595;DHT22;4335;48.860;9.198;2023-05-19T11:15:10;15.50;99.90
8595;DHT22;4335;48.860;9.198;2023-05-19T11:17:38;15.40;99.90
8595;DHT22;4335;48.860;9.198;2023-05-19T11:20:07;15.40;99.90
8595;DHT22;4335;48.860;9.198;2023-05-19T11:22:35;15.40;99.90
8595;DHT22;4335;48.860;9.198;2023-05-19T11:25:09;15.60;99.90
8595;DHT22;4335;48.860;9.198;2023-05-19T11:27:36;15.60;99.90
8595;DHT22;4335;48.860;9.198;2023-05-19T11:30:10;15.80;99.90
8595;DHT22;4335;48.860;9.198;2023-05-19T11:32:39;15.80;99.90
8595;DHT22;4335;48.860;9.198;2023-05-19T11:35:08;15.70;99.90
8595;DHT22;4335;48.860;9.198;2023-05-19T11:37:35;15.70;99.90
8595;DHT22;4335;48.860;9.198;2023-05-19T11:40:06;15.70;99.90
8595;DHT22;4335;48.860;9.198;2023-05-19T11:42:34;15.60;99.90
8595;DHT22;4335;48.860;9.198;2023-05-19T11:45:01;15.50;99.90
8595;DHT22;4335;48.860;9.198;2023-05-19T11:47:30;15.50;99.90
8595;DHT22;4335;48.860;9.198;2023-05-19T11:49:58;15.50;99.90
8595;DHT22;4335;48.860;9.198;2023-05-19T11:52:25;15.50;99.90
8595;DHT22;4335;48.860;9.198;2023-05-19T11:54:59;15.70;99.90
8595;DHT22;4335;48.860;9.198;2023-05-19T11:57:26;15.70;99.90
8595;DHT22;4335;48.860;9.198;2023-05-19T11:59:52;15.80;99.90
8595;DHT22;4335;48.860;9.198;2023-05-19T12:02:22;15.90;99.90
8595;DHT22;4335;48.860;9.198;2023-05-19T12:04:51;16.10;99.90
8595;DHT22;4335;48.860;9.198;2023-05-19T12:07:22;16.10;99.90
8595;DHT22;4335;48.860;9.198;2023-05-19T12:09:50;16.10;99.90
8595;DHT22;4335;48.860;9.198;2023-05-19T12:12:18;16.10;99.90
8595;DHT22;4335;48.860;9.198;2023-05-19T12:14:46;16.20;99.90
8595;DHT22;4335;48.860;9.198;2023-05-19T12:17:14;16.10;99.90
8595;DHT22;4335;48.860;9.198;2023-05-19T12:19:43;16.10;99.90
8595;DHT22;4335;48.860;9.198;2023-05-19T12:22:11;16.20;99.90
8595;DHT22;4335;48.860;9.198;2023-05-19T12:24:38;16.20;99.90
8595;DHT22;4335;48.860;9.198;2023-05-19T12:27:15;16.20;99.90
8595;DHT22;4335;48.860;9.198;2023-05-19T12:29:42;16.00;99.90
8595;DHT22;4335;48.860;9.198;2023-05-19T12:32:17;15.80;99.90
8595;DHT22;4335;48.860;9.198;2023-05-19T12:34:44;15.80;99.90
8595;DHT22;4335;48.860;9.198;2023-05-19T12:37:12;15.90;99.90
8595;DHT22;4335;48.860;9.198;2023-05-19T12:39:41;15.80;99.90
8595;DHT22;4335;48.860;9.198;2023-05-19T12:42:15;15.70;99.90
8595;DHT22;4335;48.860;9.198;2023-05-19T12:44:46;15.70;99.90
8595;DHT22;4335;48.860;9.198;2023-05-19T12:47:28;15.70;99.90
8595;DHT22;4335;48.860;9.198;2023-05-19T12:50:03;15.70;99.90
8595;DHT22;4335;48.860;9.198;2023-05-19T12:52:32;15.70;99.90
8595;DHT22;4335;48.860;9.198;2023-05-19T12:55:01;15.70;99.90
8595;DHT22;4335;48.860;9.198;2023-05-19T12:57:33;15.60;99.90
8595;DHT22;4335;48.860;9.198;2023-05-19T13:00:05;15.60;99.90
8595;DHT22;4335;48.860;9.198;2023-05-19T13:02:53;15.60;99.90
8595;DHT22;4335;48.860;9.198;2023-05-19T13:05:20;15.60;99.90
8595;DHT22;4335;48.860;9.198;2023-05-19T13:07:54;15.40;99.90
8595;DHT22;4335;48.860;9.198;2023-05-19T13:10:24;15.50;99.90
8595;DHT22;4335;48.860;9.198;2023-05-19T13:12:55;15.50;99.90
8595;DHT22;4335;48.860;9.198;2023-05-19T13:15:24;15.50;99.90
8595;DHT22;4335;48.860;9.198;2023-05-19T13:17:51;15.50;99.90
8595;DHT22;4335;48.860;9.198;2023-05-19T13:20:19;15.50;99.90
8595;DHT22;4335;48.860;9.198;2023-05-19T13:22:49;15.50;99.90
8595;DHT22;4335;48.860;9.198;2023-05-19T13:25:17;15.50;99.90
8595;DHT22;4335;48.860;9.198;2023-05-19T13:27:44;15.50;99.90
8595;DHT22;4335;48.860;9.198;2023-05-19T13:30:20;15.50;99.90
8595;DHT22;4335;48.860;9.198;2023-05-19T13:32:47;15.60;99.90
8595;DHT22;4335;48.860;9.198;2023-05-19T13:35:14;15.50;99.90
8595;DHT22;4335;48.860;9.198;2023-05-19T13:37:43;15.40;99.90
8595;DHT22;4335;48.860;9.198;2023-05-19T13:40:11;15.40;99.90
8595;DHT22;4335;48.860;9.198;2023-05-19T13:42:39;15.40;99.90
8595;DHT22;4335;48.860;9.198;2023-05-19T13:45:09;15.30;99.90
8595;DHT22;4335;48.860;9.198;2023-05-19T13:47:38;15.40;99.90
8595;DHT22;4335;48.860;9.198;2023-05-19T13:50:06;15.50;99.90
8595;DHT22;4335;48.860;9.198;2023-05-19T13:52:35;15.50;99.90
8595;DHT22;4335;48.860;9.198;2023-05-19T13:55:08;15.60;99.90
8595;DHT22;4335;48.860;9.198;2023-05-19T13:57:35;15.50;99.90
8595;DHT22;4335;48.860;9.198;2023-05-19T14:00:03;15.60;99.90
8595;DHT22;4335;48.860;9.198;2023-05-19T14:02:33;15.60;99.90
8595;DHT22;4335;48.860;9.198;2023-05-19T14:05:01;15.70;99.90
8595;DHT22;4335;48.860;9.198;2023-05-19T14:07:33;15.60;99.90
8595;DHT22;4335;48.860;9.198;2023-05-19T14:10:00;15.70;99.90
8595;DHT22;4335;48.860;9.198;2023-05-19T14:12:28;15.70;99.90
8595;DHT22;4335;48.860;9.198;2023-05-19T14:14:57;15.70;99.90
8595;DHT22;4335;48.860;9.198;2023-05-19T14:17:26;15.80;99.90
8595;DHT22;4335;48.860;9.198;2023-05-19T14:19:59;15.80;99.90
8595;DHT22;4335;48.860;9.198;2023-05-19T14:22:29;15.70;99.90
8595;DHT22;4335;48.860;9.198;2023-05-19T14:24:56;15.70;99.90
8595;DHT22;4335;48.860;9.198;2023-05-19T14:27:23;15.70;99.90
8595;DHT22;4335;48.860;9.198;2023-05-19T14:29:55;15.70;99.90
8595;DHT22;4335;48.860;9.198;2023-05-19T14:32:22;15.80;99.90
8595;DHT22;4335;48.860;9.198;2023-05-19T14:34:58;15.90;99.90
8595;DHT22;4335;48.860;9.198;2023-05-19T14:37:25;15.90;99.90
8595;DHT22;4335;48.860;9.198;2023-05-19T14:39:55;15.80;99.90
8595;DHT22;4335;48.860;9.198;2023-05-19T14:42:22;15.80;99.90
8595;DHT22;4335;48.860;9.198;2023-05-19T14:44:55;15.90;99.90
8595;DHT22;4335;48.860;9.198;2023-05-19T14:47:23;15.90;99.90
8595;DHT22;4335;48.860;9.198;2023-05-19T14:49:50;15.90;99.90
8595;DHT22;4335;48.860;9.198;2023-05-19T14:52:28;15.90;99.90
8595;DHT22;4335;48.860;9.198;2023-05-19T14:54:54;15.90;99.90
8595;DHT22;4335;48.860;9.198;2023-05-19T14:57:21;15.90;99.90
8595;DHT22;4335;48.860;9.198;2023-05-19T14:59:51;16.00;99.90
8595;DHT22;4335;48.860;9.198;2023-05-19T15:02:21;16.00;99.90
8595;DHT22;4335;48.860;9.198;2023-05-19T15:04:48;16.00;99.90
8595;DHT22;4335;48.860;9.198;2023-05-19T15:07:14;15.90;99.90
8595;DHT22;4335;48.860;9.198;2023-05-19T15:09:42;16.00;99.90
8595;DHT22;4335;48.860;9.198;2023-05-19T15:12:09;15.90;99.90
8595;DHT22;4335;48.860;9.198;2023-05-19T15:14:40;15.90;99.90
8595;DHT22;4335;48.860;9.198;2023-05-19T15:17:09;15.90;99.90
8595;DHT22;4335;48.860;9.198;2023-05-19T15:19:36;15.90;99.90
8595;DHT22;4335;48.860;9.198;2023-05-19T15:22:12;15.90;99.90
8595;DHT22;4335;48.860;9.198;2023-05-19T15:24:39;15.90;99.90
8595;DHT22;4335;48.860;9.198;2023-05-19T15:27:07;16.00;99.90
8595;DHT22;4335;48.860;9.198;2023-05-19T15:29:37;16.00;99.90
8595;DHT22;4335;48.860;9.198;2023-05-19T15:32:04;16.10;99.90
8595;DHT22;4335;48.860;9.198;2023-05-19T15:34:31;16.20;99.90
8595;DHT22;4335;48.860;9.198;2023-05-19T15:36:58;16.20;99.90
8595;DHT22;4335;48.860;9.198;2023-05-19T15:39:31;16.30;99.90
8595;DHT22;4335;48.860;9.198;2023-05-19T15:41:58;16.40;99.90
8595;DHT22;4335;48.860;9.198;2023-05-19T15:44:28;16.40;99.90
8595;DHT22;4335;48.860;9.198;2023-05-19T15:46:58;16.40;99.90
8595;DHT22;4335;48.860;9.198;2023-05-19T15:49:27;16.50;99.90
8595;DHT22;4335;48.860;9.198;2023-05-19T15:51:57;16.50;99.90
8595;DHT22;4335;48.860;9.198;2023-05-19T15:54:26;16.50;99.90
8595;DHT22;4335;48.860;9.198;2023-05-19T15:56:53;16.50;99.90
8595;DHT22;4335;48.860;9.198;2023-05-19T15:59:20;16.40;99.90
8595;DHT22;4335;48.860;9.198;2023-05-19T16:01:47;16.40;99.90
8595;DHT22;4335;48.860;9.198;2023-05-19T16:04:14;16.50;99.90
8595;DHT22;4335;48.860;9.198;2023-05-19T16:06:41;16.60;99.90
8595;DHT22;4335;48.860;9.198;2023-05-19T16:09:12;16.60;99.90
8595;DHT22;4335;48.860;9.198;2023-05-19T16:11:39;16.60;99.90
8595;DHT22;4335;48.860;9.198;2023-05-19T16:14:11;16.70;99.90
8595;DHT22;4335;48.860;9.198;2023-05-19T16:16:38;16.70;99.90
8595;DHT22;4335;48.860;9.198;2023-05-19T16:19:09;16.70;99.90
8595;DHT22;4335;48.860;9.198;2023-05-19T16:21:36;16.70;99.90
8595;DHT22;4335;48.860;9.198;2023-05-19T16:24:03;16.70;99.90
8595;DHT22;4335;48.860;9.198;2023-05-19T16:26:36;16.70;99.90